Time;durP1;ratioP1;P1;durP2;ratioP2;P2;SDS_P1;SDS_P2;PMS_P1;PMS_P2;Temp;Humidity;BMP_temperature;BMP_pressure;BME280_temperature;BME280_humidity;BME280_pressure;Samples;Min_cycle;Max_cycle;Signal;HPM_P1;HPM_P2
2023/08/15 00:02:00;;;;;;;10.10;3.30;;;;;;;29.64;46.76;100940.25;5054086;28;20497;-62
2023/08/15 00:04:25;;;;;;;6.55;2.35;;;;;;;29.62;47.56;100931.41;5052852;28;20350;-62
2023/08/15 00:06:50;;;;;;;3.50;2.25;;;;;;;29.60;47.31;100922.50;5052525;28;20198;-62
2023/08/15 00:09:16;;;;;;;7.07;3.00;;;;;;;29.59;47.43;100931.91;5053705;28;20032;-62
2023/08/15 00:11:41;;;;;;;3.70;2.30;;;;;;;29.59;47.36;100937.44;5052655;28;20499;-62
2023/08/15 00:14:06;;;;;;;5.10;3.03;;;;;;;29.58;47.87;100938.50;5052456;28;20041;-62
2023/08/15 00:16:32;;;;;;;3.55;2.45;;;;;;;29.56;47.52;100937.94;5052285;28;20037;-62
2023/08/15 00:18:57;;;;;;;5.53;2.80;;;;;;;29.58;47.51;100946.78;5024426;28;20030;-62
2023/08/15 00:21:23;;;;;;;5.15;2.88;;;;;;;29.55;47.59;100939.84;5044981;28;20044;-62
2023/08/15 00:23:48;;;;;;;8.02;2.80;;;;;;;29.55;47.69;100950.91;5052354;28;20029;-62
2023/08/15 00:26:15;;;;;;;5.00;3.00;;;;;;;29.54;48.06;100951.16;5053287;28;20118;-62
2023/08/15 00:28:40;;;;;;;5.25;2.78;;;;;;;29.52;47.76;100947.78;5035822;28;20111;-62
2023/08/15 00:31:06;;;;;;;3.05;2.50;;;;;;;29.53;47.66;100943.94;5053561;28;20115;-62
2023/08/15 00:33:32;;;;;;;5.30;2.22;;;;;;;29.54;48.05;100951.16;5052304;28;20029;-62
2023/08/15 00:35:57;;;;;;;3.67;2.90;;;;;;;29.53;48.66;100932.91;5053544;28;20399;-62
2023/08/15 00:38:22;;;;;;;8.73;3.08;;;;;;;29.54;48.22;100938.16;5052365;28;20053;-62
2023/08/15 00:40:48;;;;;;;7.65;3.45;;;;;;;29.61;48.21;100943.53;5052156;28;20442;-62
2023/08/15 00:43:17;;;;;;;8.88;3.10;;;;;;;29.64;48.29;100940.25;5052116;28;20466;-62
2023/08/15 00:45:43;;;;;;;4.47;3.20;;;;;;;29.66;48.61;100933.41;5053189;28;20125;-62
2023/08/15 00:48:09;;;;;;;9.63;2.80;;;;;;;29.72;48.51;100942.59;5051905;28;20033;-62
2023/08/15 00:50:34;;;;;;;6.93;2.33;;;;;;;29.75;48.67;100944.88;5052945;28;20032;-62
2023/08/15 00:53:01;;;;;;;5.68;2.95;;;;;;;29.80;48.09;100950.50;5051845;28;20033;-62
2023/08/15 00:55:27;;;;;;;4.60;2.83;;;;;;;29.83;48.34;100944.47;5051709;28;20118;-62
2023/08/15 00:57:53;;;;;;;5.28;2.75;;;;;;;29.88;48.58;100947.28;5051794;28;20061;-62
2023/08/15 01:00:18;;;;;;;4.97;3.28;;;;;;;29.90;48.36;100945.94;5052957;28;20037;-62
2023/08/15 01:02:44;;;;;;;5.25;2.58;;;;;;;29.93;48.64;100944.59;5051667;28;20037;-62
2023/08/15 01:05:11;;;;;;;6.88;2.55;;;;;;;29.95;48.82;100936.91;5051704;28;20033;-64
2023/08/15 01:07:36;;;;;;;6.25;2.60;;;;;;;29.98;48.37;100934.47;5035017;28;20025;-62
2023/08/15 01:10:02;;;;;;;5.63;2.28;;;;;;;29.99;48.02;100932.53;5051645;28;20079;-62
2023/08/15 01:13:01;;;;;;;6.13;3.00;;;;;;;30.00;48.54;100934.22;5051543;28;20037;-62
2023/08/15 01:15:29;;;;;;;5.45;2.60;;;;;;;29.97;48.24;100924.53;5051495;28;20071;-62
2023/08/15 01:17:57;;;;;;;6.80;2.83;;;;;;;29.98;48.41;100937.22;5051130;28;20155;-62
2023/08/15 01:20:32;;;;;;;3.80;2.75;;;;;;;29.99;48.63;100949.13;5052718;28;20037;-62
2023/08/15 01:23:01;;;;;;;10.18;2.60;;;;;;;29.98;48.51;100947.47;5051375;28;20036;-62
2023/08/15 01:25:27;;;;;;;2.95;2.65;;;;;;;29.98;48.05;100964.06;5052117;28;20053;-62
2023/08/15 01:27:52;;;;;;;5.15;2.53;;;;;;;29.98;48.30;100977.88;5051035;28;20603;-62
2023/08/15 01:30:21;;;;;;;3.85;2.50;;;;;;;29.96;48.24;100966.22;5051586;28;20507;-63
2023/08/15 01:33:12;;;;;;;5.95;2.70;;;;;;;29.93;48.51;100967.56;5051017;28;20027;-62
2023/08/15 01:35:46;;;;;;;3.35;1.90;;;;;;;29.91;48.41;100979.94;5042190;28;20037;-62
2023/08/15 01:38:23;;;;;;;7.82;2.55;;;;;;;29.87;48.36;100978.81;5052684;28;20037;-62
2023/08/15 01:40:50;;;;;;;4.68;2.30;;;;;;;29.87;48.11;100962.22;5026317;28;20034;-62
2023/08/15 01:43:16;;;;;;;4.97;2.15;;;;;;;29.86;47.63;100952.25;5040340;28;20029;-62
2023/08/15 01:45:41;;;;;;;4.85;2.00;;;;;;;29.86;48.04;100960.53;5051222;28;20086;-62
2023/08/15 01:48:06;;;;;;;6.90;3.20;;;;;;;29.86;48.33;100960.53;5025713;28;20033;-62
2023/08/15 01:50:32;;;;;;;4.53;2.10;;;;;;;29.85;47.97;100979.03;5031148;28;20520;-62
2023/08/15 01:52:57;;;;;;;4.32;2.00;;;;;;;29.83;47.70;100978.47;5031285;28;20401;-63
2023/08/15 01:55:22;;;;;;;5.30;2.35;;;;;;;29.81;47.75;100982.56;5014693;28;20030;-62
2023/08/15 01:57:48;;;;;;;4.93;2.20;;;;;;;29.80;47.92;100967.91;5040310;28;20485;-63
2023/08/15 02:00:13;;;;;;;4.10;2.28;;;;;;;29.78;48.01;100964.53;5052517;28;20029;-63
2023/08/15 02:02:39;;;;;;;4.25;2.42;;;;;;;29.73;48.43;100967.19;5034432;28;20168;-63
2023/08/15 02:05:04;;;;;;;7.35;2.38;;;;;;;29.72;48.40;101019.94;5034464;28;20446;-63
2023/08/15 02:07:30;;;;;;;9.05;2.90;;;;;;;29.67;48.03;101047.47;5052506;28;20437;-62
2023/08/15 02:09:55;;;;;;;4.97;1.85;;;;;;;29.66;48.60;101048.56;5052624;28;20587;-62
2023/08/15 02:12:20;;;;;;;7.50;2.35;;;;;;;29.62;48.19;101052.91;5052314;28;20044;-62
2023/08/15 02:14:46;;;;;;;6.05;2.40;;;;;;;29.58;48.81;101057.25;5052137;28;20045;-62
2023/08/15 02:17:11;;;;;;;3.90;2.13;;;;;;;29.57;48.95;101061.09;5051039;28;20045;-62
2023/08/15 02:19:36;;;;;;;6.47;2.20;;;;;;;29.55;49.08;101047.53;5050649;28;20521;-63
2023/08/15 02:22:02;;;;;;;4.10;2.65;;;;;;;29.49;48.48;101091.88;5052189;28;20092;-63
2023/08/15 02:24:29;;;;;;;10.57;2.67;;;;;;;29.38;48.58;101069.59;5052164;28;20387;-63
2023/08/15 02:26:54;;;;;;;6.10;3.40;;;;;;;29.30;49.68;101092.06;5052040;28;20132;-62
2023/08/15 02:29:20;;;;;;;5.57;2.90;;;;;;;29.23;49.43;101082.28;5052077;28;20061;-62
2023/08/15 02:31:48;;;;;;;3.95;2.47;;;;;;;29.20;50.10;101082.72;5052078;28;20057;-63
2023/08/15 02:34:17;;;;;;;4.85;2.50;;;;;;;29.17;49.89;101070.25;5049832;28;20087;-62
2023/08/15 02:36:49;;;;;;;8.23;2.30;;;;;;;29.18;49.16;101062.78;5034366;28;20037;-62
2023/08/15 02:39:16;;;;;;;3.20;2.35;;;;;;;29.19;50.09;101059.81;5034596;28;20108;-62
2023/08/15 02:41:41;;;;;;;4.72;2.42;;;;;;;29.18;49.37;101044.31;5050853;28;20091;-63
2023/08/15 02:44:07;;;;;;;5.50;2.15;;;;;;;29.17;49.61;101055.63;5036120;28;20037;-63
2023/08/15 02:46:32;;;;;;;4.15;2.15;;;;;;;29.16;48.96;101057.53;5054242;28;20508;-63
2023/08/15 02:48:58;;;;;;;4.15;1.65;;;;;;;29.11;48.40;101040.88;5055522;28;20037;-62
2023/08/15 02:51:24;;;;;;;5.43;2.38;;;;;;;29.08;47.73;101052.41;5054277;28;20056;-62
2023/08/15 02:53:50;;;;;;;7.50;1.40;;;;;;;29.01;47.69;101046.19;5054266;28;20043;-62
2023/08/15 02:56:16;;;;;;;2.97;1.38;;;;;;;28.96;47.30;101065.41;5055153;28;20037;-62
2023/08/15 02:58:41;;;;;;;7.75;1.88;;;;;;;28.92;47.06;101064.22;5055336;28;20075;-62
2023/08/15 03:01:07;;;;;;;3.13;1.20;;;;;;;28.87;47.29;101067.69;5055387;28;20572;-62
2023/08/15 03:03:32;;;;;;;2.65;1.20;;;;;;;28.80;47.08;101071.69;5055182;28;20434;-62
2023/08/15 03:06:01;;;;;;;4.30;1.27;;;;;;;28.77;47.76;101072.16;5053792;28;20025;-62
2023/08/15 03:08:27;;;;;;;5.70;1.63;;;;;;;28.70;46.79;101076.97;5053905;28;20517;-62
2023/08/15 03:10:53;;;;;;;8.30;2.25;;;;;;;28.68;46.66;101079.13;5055047;28;20108;-61
2023/08/15 03:13:19;;;;;;;5.43;1.55;;;;;;;28.60;47.13;101066.53;5053850;28;20033;-62
2023/08/15 03:15:51;;;;;;;4.18;1.92;;;;;;;28.58;46.16;101067.84;5055092;28;20060;-62
2023/08/15 03:18:17;;;;;;;6.35;1.63;;;;;;;28.53;47.17;101065.78;5053631;28;20112;-62
2023/08/15 03:20:42;;;;;;;2.88;1.58;;;;;;;28.50;46.45;101076.50;5054880;28;20112;-63
2023/08/15 03:23:08;;;;;;;4.78;1.48;;;;;;;28.47;47.09;101065.94;5053883;28;20025;-62
2023/08/15 03:25:34;;;;;;;7.63;2.00;;;;;;;28.43;46.50;101064.72;5055012;28;20045;-62
2023/08/15 03:27:59;;;;;;;5.00;1.83;;;;;;;28.39;46.11;101058.03;5055422;28;20497;-62
2023/08/15 03:30:26;;;;;;;4.90;1.85;;;;;;;28.35;46.82;101040.28;5053473;28;20037;-63
2023/08/15 03:32:51;;;;;;;4.35;1.27;;;;;;;28.28;46.96;101038.50;5053461;28;20082;-62
2023/08/15 03:35:17;;;;;;;4.40;1.63;;;;;;;28.29;46.20;101042.94;5053406;28;20029;-62
2023/08/15 03:37:42;;;;;;;3.30;1.63;;;;;;;28.26;46.66;101037.91;5054397;28;20044;-62
2023/08/15 03:40:08;;;;;;;4.65;1.73;;;;;;;28.24;46.29;101045.56;5054157;28;20130;-62
2023/08/15 03:42:34;;;;;;;6.18;1.63;;;;;;;28.21;46.58;101046.06;5054422;28;20454;-63
2023/08/15 03:44:59;;;;;;;5.13;1.63;;;;;;;28.17;46.23;101050.34;5054306;28;20036;-62
2023/08/15 03:47:25;;;;;;;6.47;1.73;;;;;;;28.12;46.17;101053.00;5054544;28;20041;-62
2023/08/15 03:49:50;;;;;;;5.70;1.77;;;;;;;28.11;46.01;101067.84;5036408;28;20033;-62
2023/08/15 03:52:15;;;;;;;5.43;1.10;;;;;;;28.06;46.65;101067.72;5054045;28;20036;-62
2023/08/15 03:54:41;;;;;;;8.35;2.20;;;;;;;28.06;46.77;101073.22;5052724;28;20064;-62
2023/08/15 03:57:06;;;;;;;4.95;1.50;;;;;;;28.04;46.40;101069.03;5054147;28;20057;-62
2023/08/15 03:59:32;;;;;;;4.93;2.00;;;;;;;28.01;46.58;101081.34;5052271;28;20496;-63
2023/08/15 04:01:57;;;;;;;4.05;1.55;;;;;;;28.00;46.65;101101.69;5054330;28;20041;-62
2023/08/15 04:04:22;;;;;;;6.30;1.45;;;;;;;27.97;46.38;101093.94;5052959;28;20476;-62
2023/08/15 04:06:48;;;;;;;5.22;1.38;;;;;;;27.95;46.49;101079.53;5052809;28;20502;-62
2023/08/15 04:09:13;;;;;;;5.95;2.03;;;;;;;27.92;46.54;101093.75;5053910;28;20033;-62
2023/08/15 04:11:38;;;;;;;2.72;1.52;;;;;;;27.92;46.17;101095.72;5052724;28;20036;-62
2023/08/15 04:14:04;;;;;;;5.07;2.22;;;;;;;27.90;46.74;101081.31;5052464;28;20037;-62
2023/08/15 04:16:30;;;;;;;7.38;2.13;;;;;;;27.89;46.89;101083.22;5054305;28;20033;-62
2023/08/15 04:18:55;;;;;;;4.45;1.52;;;;;;;27.87;46.20;101077.13;5053328;28;20036;-62
2023/08/15 04:21:21;;;;;;;8.88;1.65;;;;;;;27.86;47.28;101080.97;5054330;28;20033;-61
2023/08/15 04:23:46;;;;;;;4.07;1.52;;;;;;;27.85;46.67;101090.28;5054107;28;20519;-62
2023/08/15 04:26:13;;;;;;;3.85;1.38;;;;;;;27.85;47.11;101095.81;5055707;28;20124;-62
2023/08/15 04:28:38;;;;;;;5.25;1.83;;;;;;;27.83;47.00;101089.69;5056728;28;20093;-62
2023/08/15 04:31:03;;;;;;;5.68;2.40;;;;;;;27.82;46.91;101088.00;5056738;28;20114;-62
2023/08/15 04:33:29;;;;;;;5.65;2.00;;;;;;;27.83;46.58;101091.59;5056299;28;20501;-62
2023/08/15 04:35:55;;;;;;;3.97;1.98;;;;;;;27.83;47.35;101095.22;5055813;28;20619;-62
2023/08/15 04:38:20;;;;;;;4.80;2.03;;;;;;;27.82;46.73;101090.75;5054624;28;20037;-62
2023/08/15 04:40:46;;;;;;;6.28;2.55;;;;;;;27.82;47.19;101101.78;5052887;28;20029;-62
2023/08/15 04:43:11;;;;;;;8.05;3.05;;;;;;;27.79;47.46;101102.25;5054213;28;20127;-62
2023/08/15 04:45:40;;;;;;;8.25;2.20;;;;;;;27.76;47.26;101091.69;5036172;28;20059;-62
2023/08/15 04:48:07;;;;;;;3.85;2.08;;;;;;;27.75;47.62;101096.38;5052477;28;20113;-62
2023/08/15 04:50:32;;;;;;;9.40;2.63;;;;;;;27.74;47.96;101105.72;5054956;28;20086;-62
2023/08/15 04:52:57;;;;;;;7.38;2.53;;;;;;;27.69;47.31;101091.78;5054533;28;20037;-62
2023/08/15 04:55:23;;;;;;;8.85;2.42;;;;;;;27.73;47.70;101115.03;5053799;28;20112;-62
2023/08/15 04:57:48;;;;;;;6.68;2.30;;;;;;;27.69;47.62;101110.25;5051823;28;20037;-64
2023/08/15 05:00:15;;;;;;;6.10;2.40;;;;;;;27.66;47.08;101106.06;5053142;28;20102;-63
2023/08/15 05:02:41;;;;;;;10.73;2.90;;;;;;;27.68;47.24;101116.81;5051666;28;20496;-64
2023/08/15 05:05:10;;;;;;;7.05;2.58;;;;;;;27.65;47.47;101118.13;5052955;28;20028;-62
2023/08/15 05:07:37;;;;;;;8.60;2.47;;;;;;;27.62;47.50;101117.75;5052400;28;20082;-62
2023/08/15 05:10:03;;;;;;;5.30;2.50;;;;;;;27.59;47.40;101137.47;5052993;28;20523;-61
2023/08/15 05:12:28;;;;;;;9.38;2.38;;;;;;;27.56;47.12;101136.03;5051655;28;20029;-60
2023/08/15 05:14:53;;;;;;;4.03;1.95;;;;;;;27.56;47.35;101137.94;5052721;28;20020;-61
2023/08/15 05:17:19;;;;;;;7.55;2.88;;;;;;;27.53;46.96;101143.91;5051307;28;20060;-61
2023/08/15 05:19:44;;;;;;;7.40;2.50;;;;;;;27.52;47.20;101145.00;5051149;28;20021;-63
2023/08/15 05:22:09;;;;;;;9.27;2.20;;;;;;;27.50;47.04;101150.72;5051433;28;20388;-61
2023/08/15 05:24:35;;;;;;;7.45;2.13;;;;;;;27.51;47.39;101155.19;5052573;28;20043;-61
2023/08/15 05:27:00;;;;;;;7.18;3.17;;;;;;;27.51;47.46;101159.84;5052212;28;20041;-61
2023/08/15 05:29:25;;;;;;;6.10;2.72;;;;;;;27.54;47.68;101171.22;5052733;28;20017;-61
2023/08/15 05:31:51;;;;;;;9.63;3.45;;;;;;;27.54;47.74;101168.47;5051007;28;20108;-60
2023/08/15 05:34:17;;;;;;;7.65;2.88;;;;;;;27.54;46.99;101157.47;5052638;28;20033;-62
2023/08/15 05:36:42;;;;;;;10.20;3.38;;;;;;;27.55;47.78;101161.06;5051665;28;20484;-60
2023/08/15 05:39:07;;;;;;;8.05;2.88;;;;;;;27.69;46.88;101165.31;5053513;28;20441;-61
2023/08/15 05:41:33;;;;;;;7.03;2.30;;;;;;;27.74;47.35;101160.78;5052444;28;20143;-61
2023/08/15 05:43:58;;;;;;;4.88;2.30;;;;;;;27.81;46.85;101171.69;5051136;28;20078;-61
2023/08/15 05:46:24;;;;;;;9.43;3.10;;;;;;;27.75;47.02;101161.59;5051165;28;20427;-62
2023/08/15 05:48:49;;;;;;;7.22;3.10;;;;;;;27.77;47.15;101180.66;5052282;28;20025;-62
2023/08/15 05:51:15;;;;;;;9.73;2.97;;;;;;;27.82;47.08;101191.81;5051083;28;20112;-61
2023/08/15 05:53:40;;;;;;;11.68;2.58;;;;;;;27.85;47.27;101185.84;5052312;28;20041;-61
2023/08/15 05:56:05;;;;;;;8.98;2.38;;;;;;;27.88;47.79;101194.47;5052542;28;20059;-61
2023/08/15 05:58:31;;;;;;;8.02;2.55;;;;;;;27.86;46.62;101196.63;5051324;28;20098;-61
2023/08/15 06:00:56;;;;;;;10.40;2.67;;;;;;;27.85;46.77;101207.88;5052472;28;20086;-62
2023/08/15 06:03:22;;;;;;;10.55;2.63;;;;;;;27.86;47.29;101204.91;5051401;28;20028;-62
2023/08/15 06:05:47;;;;;;;6.43;2.63;;;;;;;27.91;47.70;101194.03;5052196;28;20472;-62
2023/08/15 06:08:12;;;;;;;10.60;2.33;;;;;;;28.10;47.35;101190.16;5051032;28;20052;-61
2023/08/15 06:10:38;;;;;;;7.00;3.65;;;;;;;28.39;45.97;101198.59;5051920;28;20075;-61
2023/08/15 06:13:03;;;;;;;8.77;2.88;;;;;;;28.62;45.83;101190.34;5052398;28;20071;-61
2023/08/15 06:15:29;;;;;;;11.50;3.15;;;;;;;28.85;45.41;101190.41;5034278;28;20033;-61
2023/08/15 06:17:54;;;;;;;7.90;2.33;;;;;;;29.06;46.05;101198.06;5052607;28;20033;-63
2023/08/15 06:20:20;;;;;;;7.03;3.03;;;;;;;29.18;45.66;101196.13;5038170;28;20028;-63
2023/08/15 06:22:45;;;;;;;5.72;3.00;;;;;;;29.38;45.45;101190.22;5056010;28;20438;-62
2023/08/15 06:25:11;;;;;;;7.72;2.97;;;;;;;29.54;44.77;101196.94;5054466;28;20512;-62
2023/08/15 06:27:37;;;;;;;6.97;2.67;;;;;;;29.72;45.09;101194.81;5054789;28;20480;-62
2023/08/15 06:30:02;;;;;;;9.38;2.85;;;;;;;29.89;44.86;101192.13;5054384;28;20032;-63
2023/08/15 06:32:29;;;;;;;5.63;2.58;;;;;;;30.08;44.78;101196.34;5054450;28;20021;-63
2023/08/15 06:34:54;;;;;;;4.82;2.53;;;;;;;30.31;44.62;101206.44;5054331;28;20021;-63
2023/08/15 06:37:20;;;;;;;7.88;2.33;;;;;;;30.49;44.65;101206.22;5055622;28;20418;-62
2023/08/15 06:39:45;;;;;;;6.18;2.92;;;;;;;30.52;43.95;101205.72;5054696;28;20040;-62
2023/08/15 06:42:11;;;;;;;7.25;3.05;;;;;;;30.69;43.60;101212.09;5055925;28;20707;-61
2023/08/15 06:44:36;;;;;;;10.73;2.78;;;;;;;30.85;43.56;101211.22;5054473;28;20041;-62
2023/08/15 06:47:02;;;;;;;9.32;2.28;;;;;;;31.02;43.13;101214.84;5054406;28;20112;-61
2023/08/15 06:49:27;;;;;;;7.00;2.90;;;;;;;31.22;42.63;101216.22;5054349;28;20116;-61
2023/08/15 06:51:53;;;;;;;9.23;2.20;;;;;;;31.40;42.50;101211.22;5048383;28;20036;-62
2023/08/15 06:54:18;;;;;;;4.90;2.70;;;;;;;31.58;43.15;101213.69;5068315;28;20053;-62
2023/08/15 06:56:43;;;;;;;7.30;2.85;;;;;;;31.80;41.85;101215.63;5054464;28;20036;-62
2023/08/15 06:59:09;;;;;;;10.55;2.58;;;;;;;31.98;41.68;101218.03;5037218;28;20028;-61
2023/08/15 07:01:34;;;;;;;9.38;3.38;;;;;;;32.17;41.81;101225.75;5054107;28;20056;-62
2023/08/15 07:03:59;;;;;;;7.28;2.72;;;;;;;32.40;41.16;101221.81;5053936;28;20033;-61
2023/08/15 07:06:25;;;;;;;8.00;2.47;;;;;;;32.62;40.77;101236.47;5036976;28;20028;-62
2023/08/15 07:08:52;;;;;;;7.82;2.78;;;;;;;32.81;40.49;101223.84;5037202;28;20392;-62
2023/08/15 07:11:17;;;;;;;9.60;2.30;;;;;;;33.03;40.56;101231.22;5054097;28;20036;-62
2023/08/15 07:13:43;;;;;;;9.43;3.50;;;;;;;33.21;40.03;101244.69;5053203;28;20492;-61
2023/08/15 07:16:08;;;;;;;5.35;2.08;;;;;;;33.39;40.12;101236.72;5054774;28;20039;-61
2023/08/15 07:18:33;;;;;;;5.68;2.33;;;;;;;33.59;39.87;101238.78;5053653;28;20108;-62
2023/08/15 07:20:59;;;;;;;8.05;2.42;;;;;;;33.76;39.97;101238.56;5055268;28;20029;-62
2023/08/15 07:23:25;;;;;;;4.50;2.53;;;;;;;33.91;39.65;101233.91;5053586;28;20033;-61
2023/08/15 07:25:50;;;;;;;5.32;1.88;;;;;;;34.02;39.23;101233.94;5054567;28;20040;-61
2023/08/15 07:28:16;;;;;;;7.15;2.05;;;;;;;34.13;39.40;101235.66;5053269;28;20511;-63
2023/08/15 07:30:45;;;;;;;6.15;2.00;;;;;;;34.29;38.12;101243.75;5054085;28;20567;-65
2023/08/15 07:33:10;;;;;;;5.10;1.85;;;;;;;34.49;38.02;101237.38;5052833;28;20512;-65
2023/08/15 07:35:36;;;;;;;6.07;1.65;;;;;;;34.65;38.42;101227.94;5053261;28;20029;-65
2023/08/15 07:38:02;;;;;;;5.05;1.63;;;;;;;34.83;38.00;101230.16;5036625;28;20039;-65
2023/08/15 07:40:27;;;;;;;5.80;1.45;;;;;;;34.97;37.38;101231.25;5054547;28;20033;-65
2023/08/15 07:42:53;;;;;;;6.35;1.77;;;;;;;35.12;37.52;101232.38;5054364;28;20032;-65
2023/08/15 07:45:24;;;;;;;5.32;1.65;;;;;;;35.27;37.46;101235.09;5054749;28;20044;-65
2023/08/15 07:47:53;;;;;;;5.75;1.75;;;;;;;35.44;37.01;101230.88;5054523;28;20436;-65
2023/08/15 07:50:22;;;;;;;5.28;1.95;;;;;;;35.59;37.35;101246.75;5055022;28;20033;-65
2023/08/15 07:52:48;;;;;;;3.83;1.30;;;;;;;35.68;36.61;101255.34;5053788;28;20565;-65
2023/08/15 07:55:15;;;;;;;2.50;1.13;;;;;;;35.77;36.19;101262.81;5054408;28;20124;-65
2023/08/15 07:57:45;;;;;;;5.63;1.33;;;;;;;35.87;36.05;101260.00;5036366;28;20573;-65
2023/08/15 08:00:14;;;;;;;4.07;1.45;;;;;;;36.01;35.98;101247.09;5054419;28;20500;-65
2023/08/15 08:02:46;;;;;;;2.65;1.02;;;;;;;36.20;35.92;101239.75;5054295;28;20124;-65
2023/08/15 08:05:12;;;;;;;2.72;1.20;;;;;;;36.37;35.58;101256.09;5036539;28;20029;-65
2023/08/15 08:07:40;;;;;;;3.55;1.30;;;;;;;36.53;35.33;101248.47;5052938;28;20087;-65
2023/08/15 08:10:06;;;;;;;4.68;1.52;;;;;;;36.67;34.92;101257.84;5053066;28;20029;-65
2023/08/15 08:12:34;;;;;;;5.50;1.35;;;;;;;36.82;34.76;101246.53;5053946;28;20122;-65
2023/08/15 08:14:59;;;;;;;4.28;1.30;;;;;;;36.93;34.63;101245.31;5034848;28;20052;-66
2023/08/15 08:17:25;;;;;;;3.88;1.20;;;;;;;37.10;34.27;101244.91;5053734;28;20052;-65
2023/08/15 08:19:51;;;;;;;3.13;0.95;;;;;;;37.25;34.23;101241.91;5052627;28;20037;-65
2023/08/15 08:22:16;;;;;;;3.63;1.40;;;;;;;37.39;34.46;101245.66;5053700;28;20041;-65
2023/08/15 08:24:42;;;;;;;3.08;1.13;;;;;;;37.53;33.58;101246.66;5053891;28;20041;-66
2023/08/15 08:27:07;;;;;;;6.78;1.10;;;;;;;37.66;34.35;101245.91;5052298;28;20045;-66
2023/08/15 08:29:33;;;;;;;1.80;1.42;;;;;;;37.78;33.84;101256.69;5053766;28;20496;-65
2023/08/15 08:31:58;;;;;;;6.25;1.80;;;;;;;37.88;33.07;101249.03;5035613;28;20478;-65
2023/08/15 08:34:24;;;;;;;5.05;2.10;;;;;;;37.96;33.73;101250.31;5053375;28;20033;-66
2023/08/15 08:36:49;;;;;;;8.30;1.80;;;;;;;38.02;33.37;101254.72;5035823;28;20467;-66
2023/08/15 08:39:14;;;;;;;2.80;1.15;;;;;;;38.17;33.40;101240.47;5053353;28;20063;-66
2023/08/15 08:41:40;;;;;;;4.03;1.20;;;;;;;38.14;32.84;101245.84;5053403;28;20512;-66
2023/08/15 08:44:06;;;;;;;4.55;0.95;;;;;;;38.32;32.75;101231.00;5052114;28;20029;-65
2023/08/15 08:46:33;;;;;;;2.17;0.85;;;;;;;38.47;33.39;101232.78;5053425;28;20480;-66
2023/08/15 08:48:59;;;;;;;4.78;0.98;;;;;;;38.47;32.69;101232.78;5051886;28;20136;-66
2023/08/15 08:51:25;;;;;;;3.38;1.27;;;;;;;38.42;32.78;101234.50;5052373;28;20040;-65
2023/08/15 08:53:51;;;;;;;3.22;1.08;;;;;;;38.32;33.40;101243.09;5053577;28;20119;-65
2023/08/15 08:56:18;;;;;;;4.25;1.10;;;;;;;38.33;32.19;101239.13;5052858;28;20025;-65
2023/08/15 08:58:48;;;;;;;3.35;1.38;;;;;;;38.58;32.43;101245.47;5053109;28;20041;-65
2023/08/15 09:01:13;;;;;;;3.88;1.25;;;;;;;38.71;31.18;101244.69;5053629;28;20036;-65
2023/08/15 09:03:40;;;;;;;2.10;1.42;;;;;;;38.79;31.79;101246.81;5053205;28;20033;-66
2023/08/15 09:06:06;;;;;;;3.38;0.80;;;;;;;38.82;32.09;101260.19;5051830;28;20513;-65
2023/08/15 09:08:32;;;;;;;3.65;1.40;;;;;;;38.82;31.95;101246.19;5052026;28;20029;-65
2023/08/15 09:10:57;;;;;;;6.88;1.30;;;;;;;38.90;31.29;101254.72;5051723;28;20025;-65
2023/08/15 09:13:25;;;;;;;3.92;1.02;;;;;;;39.16;31.51;101266.31;5052561;28;20029;-65
2023/08/15 09:15:55;;;;;;;1.50;0.77;;;;;;;39.18;31.33;101264.00;5035366;28;20061;-65
2023/08/15 09:18:24;;;;;;;1.80;0.60;;;;;;;38.81;31.33;101264.97;5052213;28;20040;-65
2023/08/15 09:20:49;;;;;;;1.80;0.80;;;;;;;38.83;31.67;101254.31;5035201;28;20036;-65
2023/08/15 09:23:16;;;;;;;2.08;1.15;;;;;;;38.81;31.09;101252.91;5052699;28;20044;-66
2023/08/15 09:25:41;;;;;;;4.45;1.20;;;;;;;38.88;31.02;101258.97;5052072;28;20053;-65
2023/08/15 09:28:07;;;;;;;1.08;0.70;;;;;;;38.91;31.53;101256.41;5051390;28;20116;-65
2023/08/15 09:30:33;;;;;;;2.75;0.68;;;;;;;38.89;31.26;101261.47;5051257;28;20048;-66
2023/08/15 09:33:00;;;;;;;2.63;1.10;;;;;;;38.89;31.12;101271.88;5052536;28;20033;-65
2023/08/15 09:35:25;;;;;;;2.35;0.90;;;;;;;39.01;31.13;101258.16;5052472;28;20064;-65
2023/08/15 09:37:52;;;;;;;3.28;0.88;;;;;;;39.06;30.51;101263.69;5052109;28;20065;-66
2023/08/15 09:40:24;;;;;;;1.33;0.47;;;;;;;39.07;30.47;101259.75;5052501;28;20076;-66
2023/08/15 09:42:51;;;;;;;1.40;0.80;;;;;;;39.05;30.89;101272.41;5052477;28;20029;-65
2023/08/15 09:45:17;;;;;;;5.03;0.95;;;;;;;39.29;30.57;101265.50;5051141;28;20125;-66
2023/08/15 09:47:44;;;;;;;2.10;1.15;;;;;;;39.63;30.30;101273.53;5034709;28;20057;-66
2023/08/15 09:50:11;;;;;;;2.28;0.90;;;;;;;39.74;30.06;101269.38;5034393;28;20033;-66
2023/08/15 09:52:44;;;;;;;2.35;1.05;;;;;;;40.13;29.91;101266.03;5053782;28;20049;-65
2023/08/15 09:55:11;;;;;;;1.80;1.00;;;;;;;40.68;29.05;101273.13;5055298;28;20033;-65
2023/08/15 09:57:38;;;;;;;1.67;1.58;;;;;;;41.33;28.56;101281.00;5038225;28;20106;-66
2023/08/15 10:00:05;;;;;;;2.13;1.30;;;;;;;42.27;27.58;101280.50;5054859;28;20021;-66
2023/08/15 10:02:30;;;;;;;2.47;0.90;;;;;;;43.73;26.11;101288.63;5054981;28;20048;-66
2023/08/15 10:05:02;;;;;;;4.45;1.30;;;;;;;44.92;25.22;101286.13;5055112;28;20472;-66
2023/08/15 10:07:31;;;;;;;2.75;0.77;;;;;;;44.66;25.07;101285.53;5038067;28;20024;-69
2023/08/15 10:09:57;;;;;;;4.43;0.85;;;;;;;44.30;25.79;101288.97;5055015;28;20032;-67
2023/08/15 10:12:24;;;;;;;5.10;0.80;;;;;;;43.96;26.26;101287.22;5054816;28;20029;-67
2023/08/15 10:14:50;;;;;;;1.08;0.90;;;;;;;43.55;26.12;101282.28;5054757;28;20017;-67
2023/08/15 10:17:17;;;;;;;3.83;0.90;;;;;;;43.60;25.90;101284.06;5054812;28;20039;-67
2023/08/15 10:19:46;;;;;;;2.92;1.30;;;;;;;43.61;26.17;101274.44;5055938;28;20029;-66
2023/08/15 10:22:17;;;;;;;5.00;0.90;;;;;;;43.75;26.13;101294.84;5037842;28;20053;-67
2023/08/15 10:24:43;;;;;;;1.75;1.15;;;;;;;43.96;25.90;101296.50;5055000;28;20040;-67
2023/08/15 10:27:09;;;;;;;3.92;1.08;;;;;;;44.02;25.87;101297.16;5054491;28;20075;-66
2023/08/15 10:29:57;;;;;;;2.97;0.77;;;;;;;44.16;25.17;101291.25;5055663;28;20025;-66
2023/08/15 10:32:25;;;;;;;3.03;0.80;;;;;;;44.06;25.36;101292.44;5054900;28;20047;-66
2023/08/15 10:35:04;;;;;;;1.60;0.77;;;;;;;43.65;25.32;101296.00;5054665;28;20033;-66
2023/08/15 10:37:41;;;;;;;2.08;0.82;;;;;;;43.24;25.91;101301.47;5054338;28;20120;-65
2023/08/15 10:40:08;;;;;;;2.17;0.70;;;;;;;42.37;26.57;101297.06;5054933;28;20040;-66
2023/08/15 10:43:02;;;;;;;2.58;1.05;;;;;;;42.00;26.50;101297.63;5054924;28;20029;-65
2023/08/15 10:45:31;;;;;;;2.22;0.70;;;;;;;42.25;25.95;101310.97;5055540;28;20033;-66
2023/08/15 10:47:57;;;;;;;2.90;0.98;;;;;;;42.75;26.05;101303.69;5054091;28;20170;-66
2023/08/15 10:50:23;;;;;;;5.97;1.88;;;;;;;43.08;25.28;101301.16;5054274;28;20071;-66
2023/08/15 10:53:03;;;;;;;4.63;1.40;;;;;;;43.27;25.20;101303.63;5054624;28;20472;-67
2023/08/15 10:55:31;;;;;;;2.25;1.30;;;;;;;43.43;25.56;101297.09;5037254;28;20092;-66
2023/08/15 10:57:57;;;;;;;3.83;0.82;;;;;;;43.55;25.07;101299.22;5055188;28;20050;-66
2023/08/15 11:00:23;;;;;;;1.60;0.88;;;;;;;43.35;25.75;101297.97;5054415;28;20041;-66
2023/08/15 11:02:49;;;;;;;2.03;1.23;;;;;;;43.14;25.35;101307.44;5053939;28;20435;-67
2023/08/15 11:05:15;;;;;;;2.72;1.00;;;;;;;43.57;25.33;101302.53;5036197;28;20060;-66
2023/08/15 11:07:43;;;;;;;2.92;1.10;;;;;;;43.93;25.09;101297.19;5053866;28;20131;-67
2023/08/15 11:10:08;;;;;;;2.50;0.80;;;;;;;44.32;24.39;101295.13;5021082;28;20407;-67
2023/08/15 11:12:34;;;;;;;5.28;0.93;;;;;;;44.53;24.58;101298.81;5055175;28;20021;-66
2023/08/15 11:15:00;;;;;;;2.25;0.88;;;;;;;44.77;24.06;101301.72;5037120;28;20110;-67
2023/08/15 11:17:25;;;;;;;4.05;0.68;;;;;;;44.91;24.17;101290.97;5053828;28;20017;-67
2023/08/15 11:19:51;;;;;;;2.83;0.93;;;;;;;45.10;23.74;101298.91;5053758;28;20490;-67
2023/08/15 11:22:16;;;;;;;3.08;0.77;;;;;;;45.25;23.51;101295.41;5053557;28;20017;-68